createdAt,value
2017-09-21T00:00:23.179Z,20.43
2017-09-21T00:01:23.825Z,20.58
2017-09-21T00:02:24.471Z,20.48
2017-09-21T00:03:25.116Z,20.43
2017-09-21T00:04:25.766Z,20.58
2017-09-21T00:05:26.808Z,20.48
2017-09-21T00:06:27.465Z,20.50
2017-09-21T00:07:28.103Z,20.59
2017-09-21T00:08:28.739Z,20.50
2017-09-21T00:09:29.379Z,20.58
2017-09-21T00:10:30.010Z,20.47
2017-09-21T00:11:30.649Z,20.44
2017-09-21T00:12:31.286Z,20.43
2017-09-21T00:13:32.121Z,20.44
2017-09-21T00:14:32.765Z,20.48
2017-09-21T00:15:33.389Z,20.51
2017-09-21T00:16:34.026Z,20.43
2017-09-21T00:17:34.659Z,20.43
2017-09-21T00:18:35.294Z,20.40
2017-09-21T00:19:35.931Z,20.48
2017-09-21T00:20:36.572Z,20.47
2017-09-21T00:21:37.402Z,20.47
2017-09-21T00:22:38.044Z,20.48
2017-09-21T00:23:38.676Z,20.43
2017-09-21T00:24:39.310Z,20.44
2017-09-21T00:25:39.946Z,20.41
2017-09-21T00:26:40.597Z,20.41
2017-09-21T00:27:41.239Z,20.39
2017-09-21T00:28:41.883Z,20.39
2017-09-21T00:29:42.719Z,20.43
2017-09-21T00:30:43.349Z,20.47
2017-09-21T00:31:44.002Z,20.39
2017-09-21T00:32:44.628Z,20.43
2017-09-21T00:33:45.261Z,20.41
2017-09-21T00:34:45.895Z,20.37
2017-09-21T00:35:46.532Z,20.41
2017-09-21T00:36:47.173Z,20.34
2017-09-21T00:37:47.806Z,20.40
2017-09-21T00:38:48.639Z,20.39
2017-09-21T00:39:49.277Z,20.43
2017-09-21T00:40:49.918Z,20.40
2017-09-21T00:41:50.554Z,20.37
2017-09-21T00:42:51.188Z,20.39
2017-09-21T00:43:51.821Z,20.31
2017-09-21T00:44:52.455Z,20.34
2017-09-21T00:45:53.089Z,20.37
2017-09-21T00:46:54.080Z,20.36
2017-09-21T00:47:54.725Z,20.32
2017-09-21T00:48:55.358Z,20.36
2017-09-21T00:49:55.991Z,20.40
2017-09-21T00:50:56.631Z,20.31
2017-09-21T00:51:57.265Z,20.36
2017-09-21T00:52:57.903Z,20.31
2017-09-21T00:53:58.533Z,20.36
2017-09-21T00:54:59.333Z,20.39
2017-09-21T00:55:59.956Z,20.37
2017-09-21T00:57:00.597Z,20.34
2017-09-21T00:58:01.239Z,20.31
2017-09-21T00:59:01.867Z,20.34
2017-09-21T01:00:02.511Z,20.32
2017-09-21T01:01:03.145Z,20.40
2017-09-21T01:02:03.777Z,20.36
2017-09-21T01:03:04.667Z,20.32
2017-09-21T01:04:05.297Z,20.39
2017-09-21T01:05:05.934Z,20.31
2017-09-21T01:06:06.568Z,20.22
2017-09-21T01:07:07.202Z,20.28
2017-09-21T01:08:07.842Z,20.32
2017-09-21T01:09:08.475Z,20.31
2017-09-21T01:10:09.114Z,20.26
2017-09-21T01:11:09.960Z,20.36
2017-09-21T01:12:10.593Z,20.32
2017-09-21T01:13:11.232Z,20.29
2017-09-21T01:14:11.863Z,20.31
2017-09-21T01:15:12.504Z,20.29
2017-09-21T01:16:13.135Z,20.29
2017-09-21T01:17:13.770Z,20.29
2017-09-21T01:18:14.410Z,20.32
2017-09-21T01:19:15.044Z,20.32
2017-09-21T01:20:15.882Z,20.32
2017-09-21T01:21:16.516Z,20.31
2017-09-21T01:22:17.150Z,20.31
2017-09-21T01:23:17.785Z,20.28
2017-09-21T01:24:18.421Z,20.28
2017-09-21T01:25:19.052Z,20.37
2017-09-21T01:26:19.688Z,20.34
2017-09-21T01:27:20.322Z,20.34
2017-09-21T01:28:21.161Z,20.36
2017-09-21T01:29:21.796Z,20.31
2017-09-21T01:30:22.442Z,20.26
2017-09-21T01:31:23.076Z,20.34
2017-09-21T01:32:23.708Z,20.31
2017-09-21T01:33:24.347Z,20.28
2017-09-21T01:34:24.982Z,20.29
2017-09-21T01:35:25.622Z,20.26
2017-09-21T01:36:26.404Z,20.29
2017-09-21T01:37:27.040Z,20.21
2017-09-21T01:38:27.682Z,20.28
2017-09-21T01:39:28.313Z,20.28
2017-09-21T01:40:28.947Z,20.24
2017-09-21T01:41:29.581Z,20.25
2017-09-21T01:42:30.219Z,20.26
2017-09-21T01:43:30.856Z,20.21
2017-09-21T01:44:31.745Z,20.28
2017-09-21T01:45:32.378Z,20.29
2017-09-21T01:46:33.020Z,20.32
2017-09-21T01:47:33.649Z,20.28
2017-09-21T01:48:34.284Z,20.25
2017-09-21T01:49:34.919Z,20.22
2017-09-21T01:50:35.557Z,20.21
2017-09-21T01:51:36.189Z,20.16
2017-09-21T01:52:36.830Z,20.24
2017-09-21T01:53:37.622Z,20.19
2017-09-21T01:54:38.251Z,20.22
2017-09-21T01:55:38.891Z,20.19
2017-09-21T01:56:39.534Z,20.19
2017-09-21T01:57:40.174Z,20.22
2017-09-21T01:58:40.802Z,20.22
2017-09-21T01:59:41.438Z,20.28
2017-09-21T02:00:42.070Z,20.18
2017-09-21T02:01:42.911Z,20.28
2017-09-21T02:02:43.549Z,20.26
2017-09-21T02:03:44.179Z,20.19
2017-09-21T02:04:44.821Z,20.16
2017-09-21T02:05:45.453Z,20.18
2017-09-21T02:06:46.087Z,20.18
2017-09-21T02:07:46.723Z,20.22
2017-09-21T02:08:47.360Z,20.18
2017-09-21T02:09:48.142Z,20.09
2017-09-21T02:10:48.779Z,20.13
2017-09-21T02:11:49.413Z,20.21
2017-09-21T02:12:50.053Z,20.22
2017-09-21T02:13:50.682Z,20.22
2017-09-21T02:14:51.325Z,20.13
2017-09-21T02:15:51.965Z,20.19
2017-09-21T02:16:52.598Z,20.19
2017-09-21T02:17:53.437Z,20.16
2017-09-21T02:18:54.087Z,20.19
2017-09-21T02:19:54.726Z,20.18
2017-09-21T02:20:55.355Z,20.13
2017-09-21T02:21:55.996Z,20.19
2017-09-21T02:22:56.626Z,20.13
2017-09-21T02:23:57.262Z,20.21
2017-09-21T02:24:57.902Z,20.16
2017-09-21T02:25:58.739Z,20.16
2017-09-21T02:26:59.372Z,20.16
2017-09-21T02:28:00.007Z,20.13
2017-09-21T02:29:00.641Z,20.04
2017-09-21T02:30:01.274Z,20.11
2017-09-21T02:31:01.910Z,20.10
2017-09-21T02:32:02.596Z,20.04
2017-09-21T02:33:03.235Z,20.02
2017-09-21T02:34:03.868Z,20.13
2017-09-21T02:35:04.701Z,20.03
2017-09-21T02:36:05.337Z,20.02
2017-09-21T02:37:05.977Z,20.04
2017-09-21T02:38:06.619Z,20.03
2017-09-21T02:39:07.261Z,19.96
2017-09-21T02:40:07.892Z,20.09
2017-09-21T02:41:08.521Z,20.03
2017-09-21T02:42:09.154Z,20.02
2017-09-21T02:43:09.995Z,19.99
2017-09-21T02:44:10.625Z,20.07
2017-09-21T02:45:11.259Z,20.03
2017-09-21T02:46:11.896Z,20.03
2017-09-21T02:47:12.531Z,20.03
2017-09-21T02:48:13.166Z,20.00
2017-09-21T02:49:13.799Z,20.02
2017-09-21T02:50:14.435Z,20.09
2017-09-21T02:51:15.275Z,20.03
2017-09-21T02:52:15.907Z,20.04
2017-09-21T02:53:16.545Z,20.06
2017-09-21T02:54:17.183Z,20.02
2017-09-21T02:55:17.826Z,20.03
2017-09-21T02:56:18.453Z,20.03
2017-09-21T02:57:19.091Z,20.06
2017-09-21T02:58:19.734Z,20.00
2017-09-21T02:59:20.518Z,20.02
2017-09-21T03:00:21.162Z,20.11
2017-09-21T03:01:21.790Z,20.04
2017-09-21T03:02:22.425Z,20.10
2017-09-21T03:03:23.059Z,20.04
2017-09-21T03:04:23.700Z,20.11
2017-09-21T03:05:24.329Z,20.04
2017-09-21T03:06:24.969Z,20.14
2017-09-21T03:07:25.607Z,20.11
2017-09-21T03:08:26.443Z,20.04
2017-09-21T03:09:27.083Z,20.10
2017-09-21T03:10:27.714Z,20.10
2017-09-21T03:11:28.352Z,20.18
2017-09-21T03:12:28.986Z,20.13
2017-09-21T03:13:29.623Z,20.11
2017-09-21T03:14:30.258Z,20.13
2017-09-21T03:15:30.892Z,20.13
2017-09-21T03:16:31.728Z,20.13
2017-09-21T03:17:32.362Z,20.11
2017-09-21T03:18:33.001Z,20.14
2017-09-21T03:19:33.639Z,20.03
2017-09-21T03:20:34.270Z,20.09
2017-09-21T03:21:34.909Z,20.14
2017-09-21T03:22:35.546Z,20.07
2017-09-21T03:23:36.179Z,20.07
2017-09-21T03:24:37.019Z,20.13
2017-09-21T03:25:37.654Z,20.07
2017-09-21T03:26:38.287Z,20.09
2017-09-21T03:27:38.919Z,20.06
2017-09-21T03:28:39.553Z,20.04
2017-09-21T03:29:40.195Z,20.03
2017-09-21T03:30:40.832Z,20.09
2017-09-21T03:31:41.461Z,19.99
2017-09-21T03:32:42.396Z,20.03
2017-09-21T03:33:43.032Z,20.02
2017-09-21T03:34:43.666Z,20.06
2017-09-21T03:35:44.303Z,20.06
2017-09-21T03:36:44.934Z,20.04
2017-09-21T03:37:45.569Z,20.06
2017-09-21T03:38:46.204Z,20.04
2017-09-21T03:39:46.838Z,20.02
2017-09-21T03:40:47.679Z,20.04
2017-09-21T03:41:48.322Z,20.03
2017-09-21T03:42:49.009Z,20.06
2017-09-21T03:43:49.646Z,20.10
2017-09-21T03:44:50.281Z,20.06
2017-09-21T03:45:50.917Z,20.07
2017-09-21T03:46:51.551Z,20.07
2017-09-21T03:47:52.184Z,20.04
2017-09-21T03:48:52.874Z,20.11
2017-09-21T03:49:53.661Z,20.07
2017-09-21T03:50:54.295Z,20.07
2017-09-21T03:51:54.933Z,20.07
2017-09-21T03:52:55.571Z,20.03
2017-09-21T03:53:56.204Z,20.04
2017-09-21T03:54:56.838Z,20.06
2017-09-21T03:55:57.475Z,20.03
2017-09-21T03:56:58.114Z,20.04
2017-09-21T03:57:58.945Z,20.02
2017-09-21T03:58:59.579Z,20.10
2017-09-21T04:00:00.225Z,20.09
2017-09-21T04:01:00.859Z,20.02
2017-09-21T04:02:01.498Z,20.07
2017-09-21T04:03:02.134Z,20.07
2017-09-21T04:04:02.771Z,20.07
2017-09-21T04:05:03.408Z,20.07
2017-09-21T04:06:04.189Z,20.07
2017-09-21T04:07:04.829Z,20.03
2017-09-21T04:08:05.463Z,20.00
2017-09-21T04:09:06.102Z,20.06
2017-09-21T04:10:06.732Z,20.03
2017-09-21T04:11:07.367Z,20.11
2017-09-21T04:12:08.007Z,20.06
2017-09-21T04:13:08.643Z,20.03
2017-09-21T04:14:09.481Z,20.06
2017-09-21T04:15:10.121Z,20.04
2017-09-21T04:16:10.750Z,20.04
2017-09-21T04:17:11.390Z,20.03
2017-09-21T04:18:12.073Z,20.06
2017-09-21T04:19:12.706Z,20.04
2017-09-21T04:20:13.340Z,20.02
2017-09-21T04:21:13.977Z,20.04
2017-09-21T04:22:14.608Z,20.06
2017-09-21T04:23:15.449Z,20.00
2017-09-21T04:24:16.093Z,20.06
2017-09-21T04:25:16.729Z,20.04
2017-09-21T04:26:17.369Z,20.03
2017-09-21T04:27:18.004Z,20.06
2017-09-21T04:28:18.640Z,20.04
2017-09-21T04:29:19.275Z,20.03
2017-09-21T04:30:19.909Z,20.03
2017-09-21T04:31:20.699Z,20.06
2017-09-21T04:32:21.379Z,20.06
2017-09-21T04:33:22.020Z,20.09
2017-09-21T04:34:22.651Z,20.03
2017-09-21T04:35:23.284Z,20.03
2017-09-21T04:36:23.920Z,20.00
2017-09-21T04:37:24.559Z,20.04
2017-09-21T04:38:25.251Z,20.06
2017-09-21T04:39:26.080Z,20.02
2017-09-21T04:40:26.717Z,20.07
2017-09-21T04:41:27.351Z,20.04
2017-09-21T04:42:27.992Z,20.07
2017-09-21T04:43:28.622Z,20.09
2017-09-21T04:44:29.258Z,20.04
2017-09-21T04:45:29.891Z,20.06
2017-09-21T04:46:30.526Z,20.03
2017-09-21T04:47:31.314Z,20.02
2017-09-21T04:48:31.944Z,20.02
2017-09-21T04:49:32.584Z,20.10
2017-09-21T04:50:33.221Z,20.03
2017-09-21T04:51:33.852Z,20.09
2017-09-21T04:52:34.493Z,20.03
2017-09-21T04:53:35.129Z,20.10
2017-09-21T04:54:35.772Z,20.07
2017-09-21T04:55:36.602Z,20.09
2017-09-21T04:56:37.237Z,20.10
2017-09-21T04:57:37.874Z,20.06
2017-09-21T04:58:38.510Z,20.07
2017-09-21T04:59:39.149Z,20.03
2017-09-21T05:00:39.778Z,20.06
2017-09-21T05:01:40.362Z,20.07
2017-09-21T05:02:40.998Z,20.07
2017-09-21T05:03:41.638Z,20.07
2017-09-21T05:04:42.467Z,20.03
2017-09-21T05:05:43.102Z,20.04
2017-09-21T05:06:43.736Z,20.02
2017-09-21T05:07:44.382Z,20.04
2017-09-21T05:08:45.016Z,19.96
2017-09-21T05:09:45.653Z,20.07
2017-09-21T05:10:46.290Z,20.00
2017-09-21T05:11:46.921Z,20.07
2017-09-21T05:12:47.657Z,20.02
2017-09-21T05:13:48.290Z,20.00
2017-09-21T05:14:48.887Z,20.04
2017-09-21T05:15:49.519Z,20.03
2017-09-21T05:16:50.152Z,20.02
2017-09-21T05:17:50.798Z,20.00
2017-09-21T05:18:56.334Z,20.03
2017-09-21T05:19:56.966Z,20.02
2017-09-21T05:20:57.801Z,20.00
2017-09-21T05:21:58.438Z,20.02
2017-09-21T05:22:59.071Z,20.04
2017-09-21T05:23:59.706Z,19.92
2017-09-21T05:25:00.341Z,20.00
2017-09-21T05:26:00.975Z,19.96
2017-09-21T05:27:01.616Z,19.96
2017-09-21T05:28:02.252Z,19.99
2017-09-21T05:29:03.087Z,19.89
2017-09-21T05:30:03.725Z,19.95
2017-09-21T05:31:04.361Z,19.95
2017-09-21T05:32:04.991Z,19.92
2017-09-21T05:33:05.638Z,19.96
2017-09-21T05:34:06.266Z,19.91
2017-09-21T05:35:06.901Z,19.94
2017-09-21T05:36:07.532Z,19.94
2017-09-21T05:37:08.171Z,19.95
2017-09-21T05:38:09.059Z,19.92
2017-09-21T05:39:09.693Z,20.02
2017-09-21T05:40:53.826Z,19.94
2017-09-21T05:41:54.466Z,19.92
2017-09-21T05:42:55.103Z,19.91
2017-09-21T05:43:55.734Z,19.91
2017-09-21T05:44:56.375Z,19.94
2017-09-21T05:45:57.257Z,19.94
2017-09-21T05:46:57.894Z,19.94
2017-09-21T05:47:58.527Z,19.89
2017-09-21T05:48:59.165Z,19.91
2017-09-21T05:49:59.801Z,19.91
2017-09-21T05:51:00.433Z,19.89
2017-09-21T05:52:01.072Z,19.89
2017-09-21T05:53:01.710Z,19.91
2017-09-21T05:54:02.494Z,19.92
2017-09-21T05:55:03.134Z,19.89
2017-09-21T05:56:03.770Z,20.03
2017-09-21T05:57:04.409Z,19.91
2017-09-21T05:58:05.042Z,19.92
2017-09-21T05:59:05.681Z,19.86
2017-09-21T06:00:06.319Z,19.92
2017-09-21T06:01:06.949Z,19.91
2017-09-21T06:02:07.786Z,19.91
2017-09-21T06:03:08.421Z,19.92
2017-09-21T06:04:09.067Z,19.99
2017-09-21T06:05:09.702Z,19.91
2017-09-21T06:06:10.339Z,19.96
2017-09-21T06:07:10.974Z,19.95
2017-09-21T06:08:11.611Z,19.89
2017-09-21T06:09:12.240Z,19.95
2017-09-21T06:10:12.876Z,19.81
2017-09-21T06:11:13.759Z,19.89
2017-09-21T06:12:14.450Z,19.91
2017-09-21T06:13:15.087Z,19.92
2017-09-21T06:14:15.725Z,19.86
2017-09-21T06:15:16.356Z,19.92
2017-09-21T06:16:16.992Z,19.86
2017-09-21T06:17:17.625Z,19.88
2017-09-21T06:18:18.269Z,19.86
2017-09-21T06:19:19.152Z,19.91
2017-09-21T06:20:19.788Z,19.82
2017-09-21T06:21:20.420Z,19.82
2017-09-21T06:22:21.067Z,19.86
2017-09-21T06:23:21.693Z,19.94
2017-09-21T06:24:22.334Z,19.85
2017-09-21T06:25:22.971Z,19.85
2017-09-21T06:26:23.613Z,19.91
2017-09-21T06:27:24.455Z,19.82
2017-09-21T06:28:25.084Z,19.79
2017-09-21T06:29:25.723Z,19.89
2017-09-21T06:30:26.356Z,19.89
2017-09-21T06:31:26.989Z,19.89
2017-09-21T06:32:27.634Z,19.82
2017-09-21T06:33:28.263Z,19.88
2017-09-21T06:34:28.900Z,19.89
2017-09-21T06:35:29.681Z,19.91
2017-09-21T06:36:30.323Z,19.85
2017-09-21T06:37:30.961Z,19.94
2017-09-21T06:38:31.592Z,19.92
2017-09-21T06:39:32.233Z,19.89
2017-09-21T06:40:32.863Z,19.82
2017-09-21T06:41:33.498Z,19.85
2017-09-21T06:42:34.134Z,19.91
2017-09-21T06:43:34.768Z,19.89
2017-09-21T06:44:35.609Z,19.86
2017-09-21T06:45:36.238Z,19.89
2017-09-21T06:46:36.884Z,19.88
2017-09-21T06:47:37.522Z,19.92
2017-09-21T06:48:38.152Z,19.96
2017-09-21T06:49:38.785Z,19.96
2017-09-21T06:50:39.418Z,19.88
2017-09-21T06:51:40.059Z,19.91
2017-09-21T06:52:40.898Z,20.02
2017-09-21T06:53:41.532Z,19.99
2017-09-21T06:54:42.222Z,19.94
2017-09-21T06:55:42.855Z,19.89
2017-09-21T06:56:43.496Z,19.89
2017-09-21T06:57:44.136Z,19.89
2017-09-21T06:58:44.765Z,20.02
2017-09-21T06:59:45.401Z,19.94
2017-09-21T07:00:46.239Z,19.91
2017-09-21T07:01:46.876Z,19.89
2017-09-21T07:02:47.508Z,19.92
2017-09-21T07:03:48.141Z,19.89
2017-09-21T07:04:48.784Z,19.92
2017-09-21T07:05:49.364Z,19.89
2017-09-21T07:06:49.997Z,19.96
2017-09-21T07:07:50.634Z,19.95
2017-09-21T07:08:51.473Z,19.95
2017-09-21T07:09:52.120Z,19.91
2017-09-21T07:10:52.742Z,19.94
2017-09-21T07:11:53.389Z,19.96
2017-09-21T07:12:54.026Z,19.89
2017-09-21T07:13:54.660Z,19.92
2017-09-21T07:14:55.327Z,19.95
2017-09-21T07:15:55.927Z,19.96
2017-09-21T07:16:56.720Z,19.92
2017-09-21T07:17:57.351Z,20.02
2017-09-21T07:18:57.987Z,19.96
2017-09-21T07:19:58.620Z,19.99
2017-09-21T07:20:59.261Z,19.94
2017-09-21T07:21:59.892Z,19.92
2017-09-21T07:23:00.534Z,19.89
2017-09-21T07:24:01.164Z,19.89
2017-09-21T07:25:01.805Z,20.00
2017-09-21T07:26:02.587Z,19.96
2017-09-21T07:27:03.231Z,19.94
2017-09-21T07:28:03.857Z,19.95
2017-09-21T07:29:04.497Z,19.89
2017-09-21T07:30:05.182Z,19.94
2017-09-21T07:31:05.818Z,19.99
2017-09-21T07:32:06.461Z,19.95
2017-09-21T07:33:07.092Z,19.89
2017-09-21T07:34:07.932Z,19.99
2017-09-21T07:35:08.567Z,19.95
2017-09-21T07:36:09.205Z,19.92
2017-09-21T07:37:09.842Z,19.94
2017-09-21T07:38:10.537Z,19.91
2017-09-21T07:39:11.177Z,19.96
2017-09-21T07:40:11.807Z,20.00
2017-09-21T07:41:12.447Z,19.91
2017-09-21T07:42:13.278Z,19.95
2017-09-21T07:43:13.914Z,20.00
2017-09-21T07:44:14.548Z,19.92
2017-09-21T07:45:15.187Z,19.95
2017-09-21T07:46:15.818Z,19.96
2017-09-21T07:47:16.455Z,19.89
2017-09-21T07:48:17.088Z,19.92
2017-09-21T07:49:17.726Z,19.92
2017-09-21T07:50:18.564Z,19.94
2017-09-21T07:51:19.198Z,19.91
2017-09-21T07:52:19.842Z,19.82
2017-09-21T07:53:20.469Z,19.85
2017-09-21T07:54:21.106Z,19.88
2017-09-21T07:55:21.743Z,19.89
2017-09-21T07:56:22.374Z,19.82
2017-09-21T07:57:23.008Z,19.76
2017-09-21T07:58:23.644Z,19.63
2017-09-21T07:59:24.677Z,19.44
2017-09-21T08:00:25.310Z,19.48
2017-09-21T08:01:25.951Z,19.45
2017-09-21T08:02:26.586Z,19.39
2017-09-21T08:03:27.224Z,19.36
2017-09-21T08:04:27.852Z,19.19
2017-09-21T08:05:28.483Z,19.29
2017-09-21T08:06:29.123Z,19.21
2017-09-21T08:07:30.056Z,19.18
2017-09-21T08:08:30.689Z,19.24
2017-09-21T08:09:31.322Z,19.16
2017-09-21T08:10:31.956Z,19.19
2017-09-21T08:11:32.591Z,19.21
2017-09-21T08:12:33.224Z,19.24
2017-09-21T08:13:33.864Z,19.16
2017-09-21T08:14:34.500Z,19.15
2017-09-21T08:15:35.342Z,19.16
2017-09-21T08:16:35.966Z,19.24
2017-09-21T08:17:36.607Z,19.12
2017-09-21T08:18:37.249Z,19.24
2017-09-21T08:19:37.885Z,19.26
2017-09-21T08:20:38.515Z,19.15
2017-09-21T08:21:39.155Z,19.22
2017-09-21T08:22:39.786Z,19.30
2017-09-21T08:23:40.583Z,19.22
2017-09-21T08:24:41.210Z,19.18
2017-09-21T08:25:41.850Z,19.19
2017-09-21T08:26:42.482Z,19.19
2017-09-21T08:27:43.115Z,19.19
2017-09-21T08:28:43.752Z,19.27
2017-09-21T08:29:44.383Z,19.21
2017-09-21T08:30:45.023Z,19.30
2017-09-21T08:31:45.862Z,19.27
2017-09-21T08:32:46.503Z,19.30
2017-09-21T08:33:47.137Z,19.26
2017-09-21T08:34:47.770Z,19.19
2017-09-21T08:35:48.411Z,19.29
2017-09-21T08:36:49.045Z,19.34
2017-09-21T08:37:49.689Z,19.39
2017-09-21T08:38:50.380Z,19.39
2017-09-21T08:39:51.011Z,19.33
2017-09-21T08:40:51.857Z,19.40
2017-09-21T08:41:52.494Z,19.37
2017-09-21T08:42:53.135Z,19.37
2017-09-21T08:43:53.819Z,19.44
2017-09-21T08:44:54.461Z,19.40
2017-09-21T08:45:55.093Z,19.41
2017-09-21T08:46:55.734Z,19.47
2017-09-21T08:47:56.372Z,19.48
2017-09-21T08:48:57.209Z,19.52
2017-09-21T08:49:57.841Z,19.51
2017-09-21T08:50:58.476Z,19.59
2017-09-21T08:51:59.117Z,19.62
2017-09-21T08:52:59.755Z,19.62
2017-09-21T08:54:00.386Z,19.69
2017-09-21T08:55:01.032Z,19.63
2017-09-21T08:56:01.673Z,19.64
2017-09-21T08:57:02.507Z,19.77
2017-09-21T08:58:03.140Z,19.67
2017-09-21T08:59:03.777Z,19.70
2017-09-21T09:00:04.417Z,19.77
2017-09-21T09:01:05.054Z,19.81
2017-09-21T09:02:05.688Z,19.70
2017-09-21T09:03:06.321Z,19.73
2017-09-21T09:04:06.959Z,19.81
2017-09-21T09:05:07.798Z,19.81
2017-09-21T09:06:08.432Z,19.81
2017-09-21T09:07:09.068Z,19.84
2017-09-21T09:08:09.711Z,19.79
2017-09-21T09:09:10.348Z,19.86
2017-09-21T09:10:10.979Z,19.79
2017-09-21T09:11:11.613Z,19.85
2017-09-21T09:12:12.251Z,19.81
2017-09-21T09:13:12.884Z,19.79
2017-09-21T09:14:13.679Z,19.91
2017-09-21T09:15:14.310Z,19.94
2017-09-21T09:16:14.950Z,19.88
2017-09-21T09:17:15.581Z,19.89
2017-09-21T09:18:16.219Z,19.92
2017-09-21T09:19:16.857Z,19.92
2017-09-21T09:20:17.498Z,19.95
2017-09-21T09:21:18.135Z,19.91
2017-09-21T09:22:18.964Z,19.94
2017-09-21T09:23:19.608Z,20.04
2017-09-21T09:24:20.239Z,20.04
2017-09-21T09:25:20.873Z,20.07
2017-09-21T09:26:21.514Z,20.02
2017-09-21T09:27:22.149Z,20.03
2017-09-21T09:28:22.786Z,20.16
2017-09-21T09:29:23.424Z,20.04
2017-09-21T09:30:24.610Z,20.16
2017-09-21T09:31:25.255Z,20.16
2017-09-21T09:32:25.879Z,20.16
2017-09-21T09:33:26.518Z,20.14
2017-09-21T09:34:27.206Z,20.14
2017-09-21T09:35:27.841Z,20.18
2017-09-21T09:36:28.475Z,20.25
2017-09-21T09:37:29.115Z,20.31
2017-09-21T09:38:30.203Z,20.34
2017-09-21T09:39:30.842Z,20.32
2017-09-21T09:40:31.479Z,20.34
2017-09-21T09:41:32.115Z,20.28
2017-09-21T09:42:32.758Z,20.32
2017-09-21T09:43:33.389Z,20.26
2017-09-21T09:44:34.028Z,20.31
2017-09-21T09:45:34.661Z,20.32
2017-09-21T09:46:35.651Z,20.36
2017-09-21T09:47:36.287Z,20.37
2017-09-21T09:48:36.918Z,20.34
2017-09-21T09:49:37.559Z,20.34
2017-09-21T09:50:38.190Z,20.32
2017-09-21T09:51:38.825Z,20.34
2017-09-21T09:52:39.462Z,20.36
2017-09-21T09:53:40.091Z,20.37
2017-09-21T09:54:40.727Z,20.41
2017-09-21T09:55:41.710Z,20.37
2017-09-21T09:56:42.349Z,20.40
2017-09-21T09:57:42.983Z,20.43
2017-09-21T09:58:43.616Z,20.47
2017-09-21T09:59:44.254Z,20.47
2017-09-21T10:00:44.888Z,20.43
2017-09-21T10:01:45.530Z,20.48
2017-09-21T10:02:46.164Z,20.47
2017-09-21T10:03:47.251Z,20.43
2017-09-21T10:04:47.887Z,20.55
2017-09-21T10:05:48.520Z,20.50
2017-09-21T10:06:49.156Z,20.41
2017-09-21T10:07:49.791Z,20.47
2017-09-21T10:08:50.431Z,20.44
2017-09-21T10:09:51.064Z,20.43
2017-09-21T10:10:51.700Z,20.50
2017-09-21T10:11:52.646Z,20.50
2017-09-21T10:12:53.287Z,20.52
2017-09-21T10:13:53.982Z,20.43
2017-09-21T10:14:54.616Z,20.51
2017-09-21T10:15:55.260Z,20.44
2017-09-21T10:16:55.890Z,20.50
2017-09-21T10:17:56.532Z,20.52
2017-09-21T10:18:57.169Z,20.56
2017-09-21T10:19:58.256Z,20.41
2017-09-21T10:20:58.893Z,20.62
2017-09-21T10:21:59.534Z,20.55
2017-09-21T10:23:00.166Z,20.56
2017-09-21T10:24:00.801Z,20.62
2017-09-21T10:25:01.436Z,20.63
2017-09-21T10:26:02.072Z,20.58
2017-09-21T10:27:02.714Z,20.56
2017-09-21T10:28:03.344Z,20.63
2017-09-21T10:29:04.130Z,20.62
2017-09-21T10:30:04.766Z,20.56
2017-09-21T10:31:05.406Z,20.63
2017-09-21T10:32:06.038Z,20.62
2017-09-21T10:33:06.681Z,20.63
2017-09-21T10:34:07.317Z,20.63
2017-09-21T10:35:07.949Z,20.62
2017-09-21T10:36:08.585Z,20.65
2017-09-21T10:37:09.427Z,20.65
2017-09-21T10:38:10.066Z,20.63
2017-09-21T10:39:10.701Z,20.60
2017-09-21T10:40:11.335Z,20.62
2017-09-21T10:41:11.969Z,20.72
2017-09-21T10:42:12.611Z,20.62
2017-09-21T10:43:13.245Z,20.62
2017-09-21T10:44:13.881Z,20.69
2017-09-21T10:45:14.670Z,20.63
2017-09-21T10:46:15.317Z,20.69
2017-09-21T10:47:15.948Z,20.67
2017-09-21T10:48:16.581Z,20.72
2017-09-21T10:49:17.215Z,20.67
2017-09-21T10:50:17.851Z,20.80
2017-09-21T10:51:18.491Z,20.74
2017-09-21T10:52:19.124Z,20.77
2017-09-21T10:53:19.961Z,20.81
2017-09-21T10:54:20.603Z,20.74
2017-09-21T10:55:21.239Z,20.74
2017-09-21T10:56:21.879Z,20.74
2017-09-21T10:57:22.516Z,20.80
2017-09-21T10:58:23.154Z,20.77
2017-09-21T10:59:23.795Z,20.77
2017-09-21T11:00:24.424Z,20.77
2017-09-21T11:01:25.263Z,20.77
2017-09-21T11:02:25.902Z,20.84
2017-09-21T11:03:26.537Z,20.72
2017-09-21T11:04:27.172Z,20.74
2017-09-21T11:05:27.807Z,20.75
2017-09-21T11:06:28.442Z,20.78
2017-09-21T11:07:29.079Z,20.74
2017-09-21T11:08:29.714Z,20.74
2017-09-21T11:09:30.356Z,20.77
2017-09-21T11:10:31.144Z,20.84
2017-09-21T11:11:31.828Z,20.87
2017-09-21T11:12:32.465Z,20.92
2017-09-21T11:13:33.106Z,20.82
2017-09-21T11:14:33.738Z,20.85
2017-09-21T11:15:34.384Z,20.88
2017-09-21T11:16:35.024Z,20.88
2017-09-21T11:17:35.670Z,20.90
2017-09-21T11:18:36.502Z,20.85
2017-09-21T11:19:37.135Z,20.85
2017-09-21T11:20:37.782Z,20.84
2017-09-21T11:21:38.412Z,20.84
2017-09-21T11:22:39.052Z,20.85
2017-09-21T11:23:39.693Z,20.87
2017-09-21T11:24:40.329Z,20.88
2017-09-21T11:25:40.968Z,20.75
2017-09-21T11:26:41.848Z,20.87
2017-09-21T11:27:42.491Z,20.90
2017-09-21T11:28:43.123Z,20.88
2017-09-21T11:29:43.757Z,20.84
2017-09-21T11:30:44.400Z,20.92
2017-09-21T11:31:45.031Z,20.87
2017-09-21T11:32:45.666Z,20.85
2017-09-21T11:33:46.303Z,20.92
2017-09-21T11:34:47.189Z,20.93
2017-09-21T11:35:47.830Z,20.93
2017-09-21T11:36:48.463Z,20.92
2017-09-21T11:37:49.108Z,20.85
2017-09-21T11:38:49.749Z,20.87
2017-09-21T11:39:50.387Z,20.87
2017-09-21T11:40:51.025Z,20.88
2017-09-21T11:41:51.657Z,20.88
2017-09-21T11:42:52.298Z,20.90
2017-09-21T11:43:53.087Z,20.87
2017-09-21T11:44:53.720Z,20.90
2017-09-21T11:45:54.353Z,20.92
2017-09-21T11:46:54.989Z,20.82
2017-09-21T11:47:55.628Z,20.92
2017-09-21T11:48:56.262Z,20.99
2017-09-21T11:49:56.898Z,20.92
2017-09-21T11:50:57.536Z,21.02
2017-09-21T11:51:58.529Z,20.97
2017-09-21T11:52:59.162Z,21.00
2017-09-21T11:53:59.804Z,20.95
2017-09-21T11:55:00.435Z,20.95
2017-09-21T11:56:01.073Z,20.95
2017-09-21T11:57:01.708Z,20.96
2017-09-21T11:58:02.351Z,20.95
2017-09-21T11:59:02.983Z,20.99
2017-09-21T12:00:03.779Z,20.97
2017-09-21T12:01:04.419Z,20.96
2017-09-21T12:02:05.101Z,20.96
2017-09-21T12:03:05.746Z,20.93
2017-09-21T12:04:06.382Z,20.92
2017-09-21T12:05:07.014Z,20.97
2017-09-21T12:06:07.649Z,20.96
2017-09-21T12:07:08.287Z,20.95
2017-09-21T12:08:09.178Z,21.00
2017-09-21T12:09:09.811Z,21.00
2017-09-21T12:10:10.447Z,20.93
2017-09-21T12:11:11.085Z,20.96
2017-09-21T12:12:11.725Z,21.02
2017-09-21T12:13:12.365Z,20.97
2017-09-21T12:14:12.995Z,20.96
2017-09-21T12:15:13.634Z,20.97
2017-09-21T12:16:14.468Z,21.00
2017-09-21T12:17:15.103Z,21.02
2017-09-21T12:18:15.746Z,21.00
2017-09-21T12:19:16.390Z,20.99
2017-09-21T12:20:17.025Z,20.96
2017-09-21T12:21:17.657Z,21.03
2017-09-21T12:22:18.298Z,20.93
2017-09-21T12:23:18.934Z,20.96
2017-09-21T12:24:19.575Z,20.96
2017-09-21T12:25:20.406Z,21.03
2017-09-21T12:26:21.048Z,21.03
2017-09-21T12:27:21.680Z,20.96
2017-09-21T12:28:22.320Z,20.96
2017-09-21T12:29:22.963Z,20.93
2017-09-21T12:30:23.593Z,20.95
2017-09-21T12:31:24.242Z,21.06
2017-09-21T12:32:24.874Z,20.95
2017-09-21T12:33:25.658Z,21.07
2017-09-21T12:34:26.300Z,20.99
2017-09-21T12:35:26.934Z,20.99
2017-09-21T12:36:27.568Z,21.02
2017-09-21T12:37:28.204Z,20.96
2017-09-21T12:38:28.839Z,20.99
2017-09-21T12:39:29.482Z,20.99
2017-09-21T12:40:30.114Z,20.99
2017-09-21T12:41:30.954Z,21.02
2017-09-21T12:42:31.601Z,20.97
2017-09-21T12:43:32.238Z,21.03
2017-09-21T12:44:32.875Z,21.02
2017-09-21T12:45:33.507Z,21.00
2017-09-21T12:46:34.149Z,20.97
2017-09-21T12:47:34.781Z,20.92
2017-09-21T12:48:35.468Z,20.92
2017-09-21T12:49:36.311Z,21.00
2017-09-21T12:50:36.946Z,21.05
2017-09-21T12:51:37.587Z,21.07
2017-09-21T12:52:38.275Z,20.99
2017-09-21T12:53:38.911Z,21.00
2017-09-21T12:54:39.550Z,20.99
2017-09-21T12:55:40.183Z,20.96
2017-09-21T12:56:40.818Z,20.99
2017-09-21T12:57:41.454Z,21.05
2017-09-21T12:58:42.293Z,21.02
2017-09-21T12:59:42.981Z,21.02
2017-09-21T13:00:43.618Z,20.99
2017-09-21T13:01:44.259Z,21.06